Observation data for Tulia on 03/20/2017      Previous  Date  Next       Current Mesonet Observations  Soil Data  Daily Summary Page  Observations in Plain Language
KTIS 200505Z 23012KT 18/04 A3009 RMK A01 T01780042  RH  041%=      5-min Rain = 0
KTIS 200510Z 24012KT 18/04 A3009 RMK A01 T01840039  RH  039%=      5-min Rain = 0
KTIS 200515Z 23012KT 19/04 A3009 RMK A01 T01870036  RH  037%=      5-min Rain = 0
KTIS 200520Z 22011KT 19/03 A3008 RMK A01 T01910032  RH  035%=      5-min Rain = 0
KTIS 200525Z 21012KT 19/03 A3008 RMK A01 T01920031  RH  035%=      5-min Rain = 0
KTIS 200530Z 21014KT 19/03 A3008 RMK A01 T01920030  RH  034%=      5-min Rain = 0
KTIS 200535Z 21013KT 19/03 A3008 RMK A01 T01870031  RH  036%=      5-min Rain = 0
KTIS 200540Z 21014KT 19/03 A3008 RMK A01 T01890029  RH  035%=      5-min Rain = 0
KTIS 200545Z 21014G20KT 20/03 A3008 RMK A01 T01950029  RH  034%=      5-min Rain = 0
KTIS 200550Z 21014KT 20/03 A3007 RMK A01 T01950030  RH  034%=      5-min Rain = 0
KTIS 200555Z 22014KT 20/03 A3007 RMK A01 T01950030  RH  034%=      5-min Rain = 0
KTIS 200600Z 22013KT 19/03 A3007 RMK A01 T01930031  RH  034%=      5-min Rain = 0
KTIS 200605Z 22013KT 19/03 A3007 RMK A01 T01920031  RH  035%=      5-min Rain = 0
KTIS 200610Z 22014KT 19/03 A3007 RMK A01 T01910031  RH  035%=      5-min Rain = 0
KTIS 200615Z 22013KT 19/03 A3007 RMK A01 T01900032  RH  035%=      5-min Rain = 0
KTIS 200620Z 22014KT 19/03 A3007 RMK A01 T01880033  RH  036%=      5-min Rain = 0
KTIS 200625Z 22013KT 19/04 A3007 RMK A01 T01860035  RH  037%=      5-min Rain = 0
KTIS 200630Z 22013G18KT 19/04 A3007 RMK A01 T01850039  RH  038%=      5-min Rain = 0
KTIS 200635Z 22013KT 18/04 A3007 RMK A01 T01830042  RH  040%=      5-min Rain = 0
KTIS 200640Z 22013KT 18/04 A3007 RMK A01 T01820044  RH  041%=      5-min Rain = 0
KTIS 200645Z 22012KT 18/05 A3007 RMK A01 T01810046  RH  041%=      5-min Rain = 0
KTIS 200650Z 22012KT 18/05 A3007 RMK A01 T01790048  RH  043%=      5-min Rain = 0
KTIS 200655Z 23012KT 18/05 A3007 RMK A01 T01770049  RH  043%=      5-min Rain = 0
KTIS 200700Z 22012KT 18/05 A3007 RMK A01 T01750050  RH  044%=      5-min Rain = 0
KTIS 200705Z 23012KT 17/05 A3007 RMK A01 T01730051  RH  045%=      5-min Rain = 0
KTIS 200710Z 23013KT 17/05 A3007 RMK A01 T01720052  RH  046%=      5-min Rain = 0
KTIS 200715Z 22012KT 17/05 A3007 RMK A01 T01700052  RH  046%=      5-min Rain = 0
KTIS 200720Z 23011KT 17/05 A3007 RMK A01 T01680052  RH  047%=      5-min Rain = 0
KTIS 200725Z 22011KT 17/05 A3007 RMK A01 T01660053  RH  048%=      5-min Rain = 0
KTIS 200730Z 22011KT 17/05 A3007 RMK A01 T01660054  RH  048%=      5-min Rain = 0
KTIS 200735Z 22011KT 16/06 A3007 RMK A01 T01640055  RH  049%=      5-min Rain = 0
KTIS 200740Z 23011KT 16/06 A3007 RMK A01 T01630057  RH  050%=      5-min Rain = 0
KTIS 200745Z 22010KT 16/06 A3007 RMK A01 T01630058  RH  051%=      5-min Rain = 0
KTIS 200750Z 22010KT 16/06 A3007 RMK A01 T01610059  RH  051%=      5-min Rain = 0
KTIS 200755Z 22010KT 16/06 A3007 RMK A01 T01590060  RH  052%=      5-min Rain = 0
KTIS 200800Z 23010G15KT 16/06 A3007 RMK A01 T01570060  RH  053%=      5-min Rain = 0
KTIS 200805Z 23009KT 16/06 A3007 RMK A01 T01560060  RH  054%=      5-min Rain = 0
KTIS 200810Z 24010KT 16/06 A3007 RMK A01 T01550061  RH  054%=      5-min Rain = 0
KTIS 200815Z 24011KT 16/06 A3007 RMK A01 T01550061  RH  054%=      5-min Rain = 0
KTIS 200820Z 24011KT 15/06 A3007 RMK A01 T01540061  RH  054%=      5-min Rain = 0
KTIS 200825Z 24012KT 15/06 A3007 RMK A01 T01520061  RH  055%=      5-min Rain = 0
KTIS 200830Z 24011KT 15/06 A3007 RMK A01 T01500061  RH  056%=      5-min Rain = 0
KTIS 200835Z 24011KT 15/06 A3006 RMK A01 T01480061  RH  057%=      5-min Rain = 0
KTIS 200840Z 24012KT 15/06 A3006 RMK A01 T01480062  RH  057%=      5-min Rain = 0
KTIS 200845Z 24013KT 15/06 A3006 RMK A01 T01470064  RH  058%=      5-min Rain = 0
KTIS 200850Z 24013KT 15/07 A3006 RMK A01 T01480068  RH  060%=      5-min Rain = 0
KTIS 200855Z 24013KT 15/07 A3006 RMK A01 T01480070  RH  060%=      5-min Rain = 0
KTIS 200900Z 24013KT 15/07 A3006 RMK A01 T01480072  RH  061%=      5-min Rain = 0
KTIS 200905Z 24012KT 15/07 A3006 RMK A01 T01470073  RH  062%=      5-min Rain = 0
KTIS 200910Z 24012G17KT 15/07 A3006 RMK A01 T01460073  RH  062%=      5-min Rain = 0
KTIS 200915Z 23011KT 14/07 A3006 RMK A01 T01440072  RH  063%=      5-min Rain = 0
KTIS 200920Z 23011KT 14/07 A3006 RMK A01 T01400070  RH  064%=      5-min Rain = 0
KTIS 200925Z 23011KT 14/07 A3006 RMK A01 T01380068  RH  064%=      5-min Rain = 0
KTIS 200930Z 23012KT 14/07 A3006 RMK A01 T01360067  RH  064%=      5-min Rain = 0
KTIS 200935Z 23012KT 14/07 A3005 RMK A01 T01360069  RH  065%=      5-min Rain = 0
KTIS 200940Z 24012G17KT 14/07 A3006 RMK A01 T01360071  RH  066%=      5-min Rain = 0
KTIS 200945Z 23011KT 14/07 A3006 RMK A01 T01360071  RH  066%=      5-min Rain = 0
KTIS 200950Z 24009KT 13/07 A3006 RMK A01 T01320069  RH  066%=      5-min Rain = 0
KTIS 200955Z 24010KT 13/07 A3006 RMK A01 T01320069  RH  067%=      5-min Rain = 0
KTIS 201000Z 25010KT 13/07 A3006 RMK A01 T01340072  RH  067%=      5-min Rain = 0
KTIS 201005Z 25008KT 14/07 A3006 RMK A01 T01350073  RH  067%=      5-min Rain = 0
KTIS 201010Z 26010KT 14/08 A3006 RMK A01 T01350076  RH  069%=      5-min Rain = 0
KTIS 201015Z 26012KT 14/08 A3007 RMK A01 T01370077  RH  068%=      5-min Rain = 0
KTIS 201020Z 26012KT 13/08 A3006 RMK A01 T01340076  RH  069%=      5-min Rain = 0
KTIS 201025Z 25012KT 13/08 A3006 RMK A01 T01320077  RH  070%=      5-min Rain = 0
KTIS 201030Z 25012KT 13/08 A3006 RMK A01 T01310077  RH  071%=      5-min Rain = 0
KTIS 201035Z 25012KT 13/08 A3006 RMK A01 T01310078  RH  071%=      5-min Rain = 0
KTIS 201040Z 25012KT 13/08 A3007 RMK A01 T01280076  RH  072%=      5-min Rain = 0
KTIS 201045Z 24011KT 13/08 A3007 RMK A01 T01280077  RH  072%=      5-min Rain = 0
KTIS 201050Z 24012KT 13/08 A3007 RMK A01 T01300077  RH  071%=      5-min Rain = 0
KTIS 201055Z 24012KT 13/08 A3007 RMK A01 T01290076  RH  071%=      5-min Rain = 0
KTIS 201100Z 24012KT 13/07 A3007 RMK A01 T01290073  RH  070%=      5-min Rain = 0
KTIS 201105Z 24011KT 13/07 A3007 RMK A01 T01280072  RH  070%=      5-min Rain = 0
KTIS 201110Z 23012KT 13/07 A3007 RMK A01 T01260071  RH  070%=      5-min Rain = 0
KTIS 201115Z 22012KT 12/07 A3007 RMK A01 T01240072  RH  071%=      5-min Rain = 0
KTIS 201120Z 22012KT 13/07 A3007 RMK A01 T01260073  RH  071%=      5-min Rain = 0
KTIS 201125Z 21011KT 12/07 A3007 RMK A01 T01210071  RH  073%=      5-min Rain = 0
KTIS 201130Z 22011KT 12/07 A3007 RMK A01 T01180072  RH  074%=      5-min Rain = 0
KTIS 201135Z 22011KT 12/07 A3007 RMK A01 T01180072  RH  074%=      5-min Rain = 0
KTIS 201140Z 22010KT 12/07 A3007 RMK A01 T01180071  RH  074%=      5-min Rain = 0
KTIS 201145Z 22011KT 12/07 A3007 RMK A01 T01190072  RH  074%=      5-min Rain = 0
KTIS 201150Z 22012KT 12/07 A3007 RMK A01 T01200072  RH  074%=      5-min Rain = 0
KTIS 201155Z 21013KT 12/07 A3007 RMK A01 T01210072  RH  073%=      5-min Rain = 0
KTIS 201200Z 22013KT 12/07 A3007 RMK A01 T01220073  RH  073%=      5-min Rain = 0
KTIS 201205Z 22013KT 12/07 A3007 RMK A01 T01220073  RH  073%=      5-min Rain = 0
KTIS 201210Z 22012KT 12/07 A3007 RMK A01 T01210072  RH  073%=      5-min Rain = 0
KTIS 201215Z 22013KT 12/07 A3007 RMK A01 T01210073  RH  073%=      5-min Rain = 0
KTIS 201220Z 22013KT 12/07 A3007 RMK A01 T01220073  RH  073%=      5-min Rain = 0
KTIS 201225Z 22013KT 12/07 A3007 RMK A01 T01220074  RH  074%=      5-min Rain = 0
KTIS 201230Z 22012KT 12/07 A3007 RMK A01 T01210074  RH  074%=      5-min Rain = 0
KTIS 201235Z 22012KT 12/07 A3007 RMK A01 T01210074  RH  074%=      5-min Rain = 0
KTIS 201240Z 22012KT 12/07 A3007 RMK A01 T01200073  RH  074%=      5-min Rain = 0
KTIS 201245Z 22013KT 12/07 A3007 RMK A01 T01200074  RH  074%=      5-min Rain = 0
KTIS 201250Z 22012KT 12/07 A3008 RMK A01 T01210073  RH  074%=      5-min Rain = 0
KTIS 201255Z 23010KT 12/07 A3007 RMK A01 T01210073  RH  073%=      5-min Rain = 0
KTIS 201300Z 23010KT 12/07 A3008 RMK A01 T01210071  RH  073%=      5-min Rain = 0
KTIS 201305Z 23010KT 12/07 A3008 RMK A01 T01210071  RH  072%=      5-min Rain = 0
KTIS 201310Z 23010KT 12/07 A3008 RMK A01 T01230071  RH  071%=      5-min Rain = 0
KTIS 201315Z 23011KT 12/07 A3008 RMK A01 T01240069  RH  071%=      5-min Rain = 0
KTIS 201320Z 23010KT 12/07 A3008 RMK A01 T01240069  RH  070%=      5-min Rain = 0
KTIS 201325Z 23009KT 12/07 A3009 RMK A01 T01230068  RH  070%=      5-min Rain = 0
KTIS 201330Z 24009KT 12/07 A3009 RMK A01 T01230067  RH  070%=      5-min Rain = 0
KTIS 201335Z 24009KT 12/07 A3009 RMK A01 T01240067  RH  069%=      5-min Rain = 0
KTIS 201340Z 25011KT 13/07 A3009 RMK A01 T01260066  RH  068%=      5-min Rain = 0
KTIS 201345Z 24011KT 13/07 A3009 RMK A01 T01260065  RH  067%=      5-min Rain = 0
KTIS 201350Z 24012KT 13/06 A3009 RMK A01 T01290064  RH  065%=      5-min Rain = 0
KTIS 201355Z 24012KT 13/06 A3009 RMK A01 T01320061  RH  063%=      5-min Rain = 0
KTIS 201400Z 24011KT 14/06 A3009 RMK A01 T01350060  RH  062%=      5-min Rain = 0
KTIS 201405Z 25010KT 14/06 A3009 RMK A01 T01370060  RH  060%=      5-min Rain = 0
KTIS 201410Z 25011KT 14/06 A3009 RMK A01 T01390058  RH  059%=      5-min Rain = 0
KTIS 201415Z 24011KT 14/06 A3009 RMK A01 T01420056  RH  057%=      5-min Rain = 0
KTIS 201420Z 25011KT 15/06 A3009 RMK A01 T01450055  RH  056%=      5-min Rain = 0
KTIS 201425Z 26011KT 15/05 A3009 RMK A01 T01470052  RH  054%=      5-min Rain = 0
KTIS 201430Z 26010KT 15/05 A301 RMK A01 T01500051  RH  052%=      5-min Rain = 0
KTIS 201435Z 25010KT 15/05 A301 RMK A01 T01530052  RH  051%=      5-min Rain = 0
KTIS 201440Z 25010KT 16/05 A301 RMK A01 T01560051  RH  050%=      5-min Rain = 0
KTIS 201445Z 25010KT 16/05 A301 RMK A01 T01600050  RH  049%=      5-min Rain = 0
KTIS 201450Z 25009KT 16/05 A301 RMK A01 T01640048  RH  047%=      5-min Rain = 0
KTIS 201455Z 26009KT 17/04 A301 RMK A01 T01670043  RH  044%=      5-min Rain = 0
KTIS 201500Z 26009KT 17/04 A301 RMK A01 T01720040  RH  042%=      5-min Rain = 0
KTIS 201505Z 27008KT 18/04 A301 RMK A01 T01760042  RH  041%=      5-min Rain = 0
KTIS 201510Z 29007KT 18/04 A301 RMK A01 T01830040  RH  039%=      5-min Rain = 0
KTIS 201515Z 28007KT 19/04 A301 RMK A01 T01860037  RH  038%=      5-min Rain = 0
KTIS 201520Z 28008KT 19/03 A301 RMK A01 T01940032  RH  035%=      5-min Rain = 0
KTIS 201525Z 28006KT 20/03 A3011 RMK A01 T02000033  RH  033%=      5-min Rain = 0
KTIS 201530Z 30006KT 21/03 A3011 RMK A01 T02060034  RH  032%=      5-min Rain = 0
KTIS 201535Z 30007KT 21/03 A3011 RMK A01 T02110026  RH  030%=      5-min Rain = 0
KTIS 201540Z 30006KT 22/02 A3011 RMK A01 T02170023  RH  028%=      5-min Rain = 0
KTIS 201545Z 32007KT 22/02 A3011 RMK A01 T02230020  RH  026%=      5-min Rain = 0
KTIS 201550Z 31006KT 23/01 A3011 RMK A01 T02270014  RH  025%=      5-min Rain = 0
KTIS 201555Z 30007KT 23/01 A3011 RMK A01 T02320013  RH  024%=      5-min Rain = 0
KTIS 201600Z 29007KT 24/01 A3011 RMK A01 T02380014  RH  023%=      5-min Rain = 0
KTIS 201605Z 29007KT 25/01 A3011 RMK A01 T02450009  RH  021%=      5-min Rain = 0
KTIS 201610Z 28008KT 25/M00 A3011 RMK A01 T02511004  RH  019%=      5-min Rain = 0
KTIS 201615Z 28009KT 26/M01 A301 RMK A01 T02551011  RH  018%=      5-min Rain = 0
KTIS 201620Z 27009KT 26/M02 A301 RMK A01 T02591024  RH  016%=      5-min Rain = 0
KTIS 201625Z 29009KT 26/M02 A301 RMK A01 T02641024  RH  015%=      5-min Rain = 0
KTIS 201630Z 30009KT 27/M02 A301 RMK A01 T02681023  RH  015%=      5-min Rain = 0
KTIS 201635Z 30008KT 27/M03 A301 RMK A01 T02701027  RH  014%=      5-min Rain = 0
KTIS 201640Z 31008KT 27/M03 A301 RMK A01 T02721029  RH  014%=      5-min Rain = 0
KTIS 201645Z 30008KT 27/M03 A301 RMK A01 T02741025  RH  014%=      5-min Rain = 0
KTIS 201650Z 29008KT 28/M02 A301 RMK A01 T02771023  RH  014%=      5-min Rain = 0
KTIS 201655Z 28007KT 28/M03 A301 RMK A01 T02791030  RH  013%=      5-min Rain = 0
KTIS 201700Z 28007G12KT 28/M03 A301 RMK A01 T02801031  RH  013%=      5-min Rain = 0
KTIS 201705Z 30009KT 28/M03 A301 RMK A01 T02831028  RH  013%=      5-min Rain = 0
KTIS 201710Z 27006KT 29/M02 A301 RMK A01 T02851023  RH  013%=      5-min Rain = 0
KTIS 201715Z 25009G14KT 29/M04 A301 RMK A01 T02871035  RH  012%=      5-min Rain = 0
KTIS 201720Z 26008KT 29/M04 A301 RMK A01 T02861036  RH  012%=      5-min Rain = 0
KTIS 201725Z 26006KT 29/M03 A301 RMK A01 T02871034  RH  012%=      5-min Rain = 0
KTIS 201730Z 27007G12KT 29/M04 A301 RMK A01 T02891035  RH  012%=      5-min Rain = 0
KTIS 201735Z 28007G14KT 29/M03 A3009 RMK A01 T02891030  RH  012%=      5-min Rain = 0
KTIS 201740Z 28008KT 30/M03 A3009 RMK A01 T02951028  RH  012%=      5-min Rain = 0
KTIS 201745Z 26007KT 29/M04 A3009 RMK A01 T02941038  RH  011%=      5-min Rain = 0
KTIS 201750Z 28007KT 29/M04 A3009 RMK A01 T02921042  RH  011%=      5-min Rain = 0
KTIS 201755Z 27009KT 30/M04 A3009 RMK A01 T02951038  RH  011%=      5-min Rain = 0
KTIS 201800Z 27008KT 30/M04 A3009 RMK A01 T02961038  RH  011%=      5-min Rain = 0
KTIS 201805Z 29006G13KT 30/M04 A3009 RMK A01 T02981035  RH  011%=      5-min Rain = 0
KTIS 201810Z 26007KT 30/M04 A3008 RMK A01 T02991039  RH  011%=      5-min Rain = 0
KTIS 201815Z 27010KT 30/M04 A3008 RMK A01 T03031038  RH  011%=      5-min Rain = 0
KTIS 201820Z 26009G15KT 30/M04 A3008 RMK A01 T03021041  RH  011%=      5-min Rain = 0
KTIS 201825Z 24010G16KT 30/M04 A3008 RMK A01 T03041039  RH  011%=      5-min Rain = 0
KTIS 201830Z 26008G13KT 31/M04 A3008 RMK A01 T03071041  RH  010%=      5-min Rain = 0
KTIS 201835Z 27009KT 31/M04 A3007 RMK A01 T03061037  RH  011%=      5-min Rain = 0
KTIS 201840Z 28010G17KT 31/M04 A3007 RMK A01 T03071037  RH  011%=      5-min Rain = 0
KTIS 201845Z 24010KT 31/M04 A3007 RMK A01 T03081042  RH  010%=      5-min Rain = 0
KTIS 201850Z 23009KT 31/M04 A3007 RMK A01 T03091038  RH  010%=      5-min Rain = 0
KTIS 201855Z 24008KT 31/M04 A3006 RMK A01 T03091037  RH  011%=      5-min Rain = 0
KTIS 201900Z 26010G16KT 31/M04 A3006 RMK A01 T03141037  RH  010%=      5-min Rain = 0
KTIS 201905Z 24009G14KT 32/M04 A3006 RMK A01 T03151040  RH  010%=      5-min Rain = 0
KTIS 201910Z 26009G15KT 32/M04 A3006 RMK A01 T03151039  RH  010%=      5-min Rain = 0
KTIS 201915Z 24006G14KT 32/M04 A3005 RMK A01 T03151040  RH  010%=      5-min Rain = 0
KTIS 201920Z 25012KT 32/M04 A3005 RMK A01 T03191038  RH  010%=      5-min Rain = 0
KTIS 201925Z 24009G14KT 32/M04 A3005 RMK A01 T03171042  RH  010%=      5-min Rain = 0
KTIS 201930Z 25012KT 32/M04 A3005 RMK A01 T03181042  RH  010%=      5-min Rain = 0
KTIS 201935Z 23009G17KT 32/M04 A3004 RMK A01 T03151043  RH  010%=      5-min Rain = 0
KTIS 201940Z 24012KT 32/M04 A3004 RMK A01 T03161043  RH  010%=      5-min Rain = 0
KTIS 201945Z 25013G18KT 32/M04 A3004 RMK A01 T03171041  RH  010%=      5-min Rain = 0
KTIS 201950Z 24008G15KT 32/M05 A3003 RMK A01 T03151045  RH  010%=      5-min Rain = 0
KTIS 201955Z 24012G24KT 32/M04 A3003 RMK A01 T03181039  RH  010%=      5-min Rain = 0
KTIS 202000Z 24010KT 32/M04 A3003 RMK A01 T03201041  RH  010%=      5-min Rain = 0
KTIS 202005Z 28012G18KT 32/M04 A3003 RMK A01 T03181039  RH  010%=      5-min Rain = 0
KTIS 202010Z 25013G23KT 32/M04 A3003 RMK A01 T03201035  RH  010%=      5-min Rain = 0
KTIS 202015Z 25007G17KT 32/M04 A3003 RMK A01 T03181041  RH  010%=      5-min Rain = 0
KTIS 202020Z 26011G16KT 32/M04 A3002 RMK A01 T03201036  RH  010%=      5-min Rain = 0
KTIS 202025Z 24011G16KT 32/M04 A3002 RMK A01 T03211037  RH  010%=      5-min Rain = 0
KTIS 202030Z 23010KT 32/M04 A3002 RMK A01 T03181036  RH  010%=      5-min Rain = 0
KTIS 202035Z 26014KT 32/M04 A3002 RMK A01 T03211035  RH  010%=      5-min Rain = 0
KTIS 202040Z 26011G17KT 32/M04 A3002 RMK A01 T03191038  RH  010%=      5-min Rain = 0
KTIS 202045Z 26011G17KT 32/M04 A3002 RMK A01 T03191037  RH  010%=      5-min Rain = 0
KTIS 202050Z 24015KT 32/M04 A3002 RMK A01 T03191035  RH  010%=      5-min Rain = 0
KTIS 202055Z 23014KT 32/M03 A3002 RMK A01 T03211033  RH  010%=      5-min Rain = 0
KTIS 202100Z 24012G17KT 32/M03 A3001 RMK A01 T03211032  RH  010%=      5-min Rain = 0
KTIS 202105Z 23014G19KT 32/M03 A3001 RMK A01 T03211033  RH  010%=      5-min Rain = 0
KTIS 202110Z 22012G18KT 32/M03 A3001 RMK A01 T03211032  RH  010%=      5-min Rain = 0
KTIS 202115Z 22012G18KT 32/M03 A3001 RMK A01 T03201032  RH  010%=      5-min Rain = 0
KTIS 202120Z 24013G20KT 32/M04 A3001 RMK A01 T03191035  RH  010%=      5-min Rain = 0
KTIS 202125Z 24012G17KT 32/M03 A3001 RMK A01 T03211032  RH  010%=      5-min Rain = 0
KTIS 202130Z 25013KT 32/M04 A30 RMK A01 T03201035  RH  010%=      5-min Rain = 0
KTIS 202135Z 23012G18KT 32/M04 A30 RMK A01 T03191035  RH  010%=      5-min Rain = 0
KTIS 202140Z 24012G17KT 32/M03 A30 RMK A01 T03201034  RH  010%=      5-min Rain = 0
KTIS 202145Z 23012KT 32/M03 A30 RMK A01 T03201034  RH  010%=      5-min Rain = 0
KTIS 202150Z 24012KT 32/M03 A30 RMK A01 T03211031  RH  010%=      5-min Rain = 0
KTIS 202155Z 23016G24KT 32/M03 A2999 RMK A01 T03221033  RH  010%=      5-min Rain = 0
KTIS 202200Z 23010G15KT 32/M03 A2999 RMK A01 T03191034  RH  010%=      5-min Rain = 0
KTIS 202205Z 23010G16KT 32/M03 A2999 RMK A01 T03201032  RH  010%=      5-min Rain = 0
KTIS 202210Z 23011G18KT 32/M03 A2999 RMK A01 T03191034  RH  010%=      5-min Rain = 0
KTIS 202215Z 23009KT 32/M03 A2999 RMK A01 T03181034  RH  010%=      5-min Rain = 0
KTIS 202220Z 21010G15KT 32/M03 A2999 RMK A01 T03191032  RH  010%=      5-min Rain = 0
KTIS 202225Z 24012G18KT 32/M04 A2999 RMK A01 T03181036  RH  010%=      5-min Rain = 0
KTIS 202230Z 22011KT 32/M04 A2998 RMK A01 T03191037  RH  010%=      5-min Rain = 0
KTIS 202235Z 22011G16KT 32/M04 A2998 RMK A01 T03181035  RH  010%=      5-min Rain = 0
KTIS 202240Z 25012G19KT 32/M04 A2998 RMK A01 T03201038  RH  010%=      5-min Rain = 0
KTIS 202245Z 24010G15KT 32/M04 A2998 RMK A01 T03171040  RH  010%=      5-min Rain = 0
KTIS 202250Z 25013G21KT 32/M04 A2998 RMK A01 T03171039  RH  010%=      5-min Rain = 0
KTIS 202255Z 25014G19KT 32/M04 A2998 RMK A01 T03171039  RH  010%=      5-min Rain = 0
KTIS 202300Z 24011G17KT 32/M04 A2998 RMK A01 T03161040  RH  010%=      5-min Rain = 0
KTIS 202305Z 24013G18KT 31/M04 A2998 RMK A01 T03141040  RH  010%=      5-min Rain = 0
KTIS 202310Z 25010KT 31/M04 A2998 RMK A01 T03141038  RH  010%=      5-min Rain = 0
KTIS 202315Z 24012G19KT 31/M04 A2998 RMK A01 T03141037  RH  010%=      5-min Rain = 0
KTIS 202320Z 24014KT 31/M04 A2998 RMK A01 T03121038  RH  010%=      5-min Rain = 0
KTIS 202325Z 23013KT 31/M04 A2998 RMK A01 T03111037  RH  010%=      5-min Rain = 0
KTIS 202330Z 24010KT 31/M04 A2998 RMK A01 T03101038  RH  010%=      5-min Rain = 0
KTIS 202335Z 23010KT 31/M04 A2998 RMK A01 T03091037  RH  011%=      5-min Rain = 0
KTIS 202340Z 22011KT 31/M04 A2998 RMK A01 T03081037  RH  011%=      5-min Rain = 0
KTIS 202345Z 23009KT 31/M03 A2998 RMK A01 T03071034  RH  011%=      5-min Rain = 0
KTIS 202350Z 23010KT 31/M04 A2998 RMK A01 T03061035  RH  011%=      5-min Rain = 0
KTIS 202355Z 23007KT 31/M03 A2998 RMK A01 T03051033  RH  011%=      5-min Rain = 0
KTIS 210000Z 24009G14KT 30/M03 A2998 RMK A01 T03041033  RH  011%=      5-min Rain = 0
KTIS 210005Z 23011KT 30/M04 A2998 RMK A01 T03021037  RH  011%=      5-min Rain = 0
KTIS 210010Z 24010KT 30/M04 A2998 RMK A01 T03001036  RH  011%=      5-min Rain = 0
KTIS 210015Z 23007KT 30/M03 A2998 RMK A01 T02971033  RH  012%=      5-min Rain = 0
KTIS 210020Z 23007KT 29/M03 A2998 RMK A01 T02931031  RH  012%=      5-min Rain = 0
KTIS 210025Z 23008KT 29/M03 A2998 RMK A01 T02891030  RH  012%=      5-min Rain = 0
KTIS 210030Z 23008KT 29/M03 A2998 RMK A01 T02861030  RH  013%=      5-min Rain = 0
KTIS 210035Z 23008KT 28/M03 A2999 RMK A01 T02831031  RH  013%=      5-min Rain = 0
KTIS 210040Z 24007KT 28/M03 A2999 RMK A01 T02781030  RH  013%=      5-min Rain = 0
KTIS 210045Z 23006KT 27/M03 A2999 RMK A01 T02681026  RH  015%=      5-min Rain = 0
KTIS 210050Z 24005KT 26/M02 A2999 RMK A01 T02571024  RH  016%=      5-min Rain = 0
KTIS 210055Z 25006KT 25/M02 A2999 RMK A01 T02471024  RH  017%=      5-min Rain = 0
KTIS 210100Z 29007KT 24/M02 A2999 RMK A01 T02361017  RH  019%=      5-min Rain = 0
KTIS 210105Z 29010KT 23/M02 A2999 RMK A01 T02271019  RH  019%=      5-min Rain = 0
KTIS 210110Z 28009KT 23/M02 A2999 RMK A01 T02331023  RH  018%=      5-min Rain = 0
KTIS 210115Z 27008KT 24/M03 A2999 RMK A01 T02411030  RH  017%=      5-min Rain = 0
KTIS 210120Z 27007KT 25/M03 A2999 RMK A01 T02451033  RH  016%=      5-min Rain = 0
KTIS 210125Z 27006KT 24/M03 A2999 RMK A01 T02421034  RH  016%=      5-min Rain = 0
KTIS 210130Z 27006KT 24/M03 A2999 RMK A01 T02391034  RH  016%=      5-min Rain = 0
KTIS 210135Z 27006KT 23/M03 A2999 RMK A01 T02311032  RH  017%=      5-min Rain = 0
KTIS 210140Z 28006KT 22/M03 A30 RMK A01 T02241030  RH  018%=      5-min Rain = 0
KTIS 210145Z 28007KT 22/M03 A30 RMK A01 T02221029  RH  019%=      5-min Rain = 0
KTIS 210150Z 28006KT 21/M02 A30 RMK A01 T02071021  RH  022%=      5-min Rain = 0
KTIS 210155Z 28006KT 20/M02 A30 RMK A01 T02031018  RH  023%=      5-min Rain = 0
KTIS 210200Z 27005KT 20/M02 A30 RMK A01 T01991019  RH  023%=      5-min Rain = 0
KTIS 210205Z 26005KT 20/M02 A30 RMK A01 T02001024  RH  022%=      5-min Rain = 0
KTIS 210210Z 29003KT 20/M02 A30 RMK A01 T02031022  RH  022%=      5-min Rain = 0
KTIS 210215Z 30004KT 20/M02 A30 RMK A01 T02021019  RH  023%=      5-min Rain = 0
KTIS 210220Z 29005KT 20/M02 A30 RMK A01 T01991018  RH  023%=      5-min Rain = 0
KTIS 210225Z 27005KT 19/M02 A30 RMK A01 T01891019  RH  025%=      5-min Rain = 0
KTIS 210230Z 29004KT 18/M02 A30 RMK A01 T01831019  RH  025%=      5-min Rain = 0
KTIS 210235Z 29004KT 19/M02 A3001 RMK A01 T01941020  RH  024%=      5-min Rain = 0
KTIS 210240Z 28005KT 19/M02 A3001 RMK A01 T01861015  RH  026%=      5-min Rain = 0
KTIS 210245Z 28004KT 18/M02 A3001 RMK A01 T01801020  RH  026%=      5-min Rain = 0
KTIS 210250Z 29005KT 18/M02 A3001 RMK A01 T01841021  RH  025%=      5-min Rain = 0
KTIS 210255Z 30005KT 18/M02 A3001 RMK A01 T01841019  RH  025%=      5-min Rain = 0
KTIS 210300Z 30005KT 18/M02 A3001 RMK A01 T01771019  RH  027%=      5-min Rain = 0
KTIS 210305Z 31003KT 17/M03 A3001 RMK A01 T01731025  RH  026%=      5-min Rain = 0
KTIS 210310Z 31004KT 17/M03 A3001 RMK A01 T01741025  RH  026%=      5-min Rain = 0
KTIS 210315Z 30004KT 18/M03 A3001 RMK A01 T01771033  RH  024%=      5-min Rain = 0
KTIS 210320Z 26004KT 18/M03 A3001 RMK A01 T01751029  RH  025%=      5-min Rain = 0
KTIS 210325Z 28003KT 17/M02 A3001 RMK A01 T01651022  RH  028%=      5-min Rain = 0
KTIS 210330Z 27005KT 16/M02 A3001 RMK A01 T01581022  RH  029%=      5-min Rain = 0
KTIS 210335Z 27005KT 16/M02 A3001 RMK A01 T01561024  RH  029%=      5-min Rain = 0
KTIS 210340Z 27005KT 16/M03 A3001 RMK A01 T01561025  RH  029%=      5-min Rain = 0
KTIS 210345Z 27005KT 16/M03 A3001 RMK A01 T01571029  RH  028%=      5-min Rain = 0
KTIS 210350Z 28003KT 17/M03 A3001 RMK A01 T01661030  RH  026%=      5-min Rain = 0
KTIS 210355Z 28003KT 18/M03 A3001 RMK A01 T01751031  RH  025%=      5-min Rain = 0
KTIS 210400Z 27005KT 17/M03 A3001 RMK A01 T01651030  RH  026%=      5-min Rain = 0
KTIS 210405Z 27003KT 16/M03 A3001 RMK A01 T01601029  RH  028%=      5-min Rain = 0
KTIS 210410Z 27004KT 16/M03 A3001 RMK A01 T01611032  RH  027%=      5-min Rain = 0
KTIS 210415Z 31004KT 16/M03 A3001 RMK A01 T01601029  RH  028%=      5-min Rain = 0
KTIS 210420Z 31004KT 14/M02 A3001 RMK A01 T01411021  RH  033%=      5-min Rain = 0
KTIS 210425Z 30007KT 12/M01 A3001 RMK A01 T01231014  RH  039%=      5-min Rain = 0
KTIS 210430Z 29006KT 12/M02 A3001 RMK A01 T01201015  RH  039%=      5-min Rain = 0
KTIS 210435Z 27006KT 13/M02 A3001 RMK A01 T01251020  RH  037%=      5-min Rain = 0
KTIS 210440Z 27006KT 13/M03 A3001 RMK A01 T01341026  RH  033%=      5-min Rain = 0
KTIS 210445Z 26008KT 14/M03 A3001 RMK A01 T01411028  RH  031%=      5-min Rain = 0
KTIS 210450Z 25007KT 15/M03 A3001 RMK A01 T01461027  RH  031%=      5-min Rain = 0
KTIS 210455Z 26006KT 15/M03 A3001 RMK A01 T01451029  RH  030%=      5-min Rain = 0
KTIS 210500Z 26005KT 15/M03 A3001 RMK A01 T01511032  RH  028%=      5-min Rain = 0

Page generated in 0.074 seconds.